Time;durP1;ratioP1;P1;durP2;ratioP2;P2;SDS_P1;SDS_P2;PMS_P1;PMS_P2;Temp;Humidity;BMP_temperature;BMP_pressure;BME280_temperature;BME280_humidity;BME280_pressure;Samples;Min_cycle;Max_cycle;Signal;HPM_P1;HPM_P2
2022/12/27 00:01:32;;;;;;;13.75;6.75;;;;;;;1.32;100.00;102040.66;6208955;23;20359;-92
2022/12/27 00:03:57;;;;;;;14.07;6.15;;;;;;;1.33;100.00;102039.78;6209810;23;20371;-91
2022/12/27 00:06:24;;;;;;;9.15;6.07;;;;;;;1.33;100.00;102047.66;6209426;23;20086;-91
2022/12/27 00:08:49;;;;;;;10.75;5.72;;;;;;;1.26;100.00;102048.50;6183666;23;20366;-92
2022/12/27 00:11:17;;;;;;;10.43;6.28;;;;;;;1.30;100.00;102046.78;6209735;23;20008;-92
2022/12/27 00:13:43;;;;;;;15.45;6.97;;;;;;;1.30;100.00;102045.03;6209265;23;20016;-91
2022/12/27 00:16:11;;;;;;;10.95;6.32;;;;;;;1.36;100.00;102058.19;6209805;23;20007;-91
2022/12/27 00:18:37;;;;;;;13.05;6.57;;;;;;;1.36;100.00;102057.31;6209739;23;20000;-90
2022/12/27 00:21:04;;;;;;;10.60;6.28;;;;;;;1.39;100.00;102052.09;6185405;23;20319;-92
2022/12/27 00:23:36;;;;;;;10.57;6.00;;;;;;;1.37;100.00;102049.44;6215211;23;20008;-92
2022/12/27 00:26:12;;;;;;;16.73;6.53;;;;;;;1.35;100.00;102053.81;6212325;23;20007;-93
2022/12/27 00:28:37;;;;;;;14.07;6.85;;;;;;;1.38;100.00;102060.81;6211906;23;20093;-91
2022/12/27 00:31:04;;;;;;;11.07;6.00;;;;;;;1.39;100.00;102052.09;6212503;23;20024;-92
2022/12/27 00:33:31;;;;;;;14.65;6.47;;;;;;;1.41;100.00;102055.59;6209981;23;20496;-91
2022/12/27 00:36:02;;;;;;;13.48;6.18;;;;;;;1.35;100.00;102042.44;6211161;23;20502;-92
2022/12/27 00:38:28;;;;;;;12.48;6.35;;;;;;;1.44;100.00;102056.47;6212290;23;20054;-92
2022/12/27 00:40:53;;;;;;;9.95;5.82;;;;;;;1.40;100.00;102062.56;6209839;23;20004;-92
2022/12/27 00:43:19;;;;;;;13.02;6.38;;;;;;;1.40;100.00;102065.19;6208332;23;20008;-91
2022/12/27 00:45:45;;;;;;;11.32;5.82;;;;;;;1.41;100.00;102059.06;6208182;23;20501;-91
2022/12/27 00:48:11;;;;;;;14.13;6.30;;;;;;;1.37;100.00;102062.56;6207895;23;20419;-92
2022/12/27 00:50:38;;;;;;;12.95;6.38;;;;;;;1.37;100.00;102070.41;6207224;23;20004;-91
2022/12/27 00:53:03;;;;;;;13.50;6.45;;;;;;;1.34;100.00;102062.56;6209192;23;20001;-90
2022/12/27 00:55:29;;;;;;;12.80;6.10;;;;;;;1.39;100.00;102073.94;6206695;23;20005;-91
2022/12/27 00:57:54;;;;;;;10.07;6.00;;;;;;;1.34;100.00;102073.03;6208278;23;20004;-91
2022/12/27 01:00:19;;;;;;;16.33;6.32;;;;;;;1.37;100.00;102074.78;6207521;23;20394;-91
2022/12/27 01:02:45;;;;;;;9.80;6.35;;;;;;;1.32;100.00;102080.00;6207500;23;20287;-91
2022/12/27 01:05:10;;;;;;;11.15;5.88;;;;;;;1.27;100.00;102076.47;6206868;23;20012;-89
2022/12/27 01:07:35;;;;;;;15.57;6.22;;;;;;;1.32;100.00;102081.75;6207366;23;20067;-91
2022/12/27 01:10:00;;;;;;;13.52;6.70;;;;;;;1.22;100.00;102076.44;6208608;23;20011;-90
2022/12/27 01:12:26;;;;;;;14.80;6.63;;;;;;;1.22;100.00;102086.94;6207050;23;20009;-92
2022/12/27 01:14:51;;;;;;;11.68;6.10;;;;;;;1.32;100.00;102087.00;6206314;23;20382;-90
2022/12/27 01:17:16;;;;;;;13.88;6.32;;;;;;;1.24;100.00;102090.44;6206293;23;20418;-91
2022/12/27 01:19:42;;;;;;;15.35;6.28;;;;;;;1.25;100.00;102099.19;6207036;23;20028;-91
2022/12/27 01:22:07;;;;;;;15.50;6.35;;;;;;;1.22;100.00;102092.19;6206460;23;20012;-91
2022/12/27 01:24:33;;;;;;;11.15;6.18;;;;;;;1.21;100.00;102095.69;6206530;23;20004;-93
2022/12/27 01:26:59;;;;;;;10.93;5.43;;;;;;;1.25;100.00;102101.81;6209231;23;20078;-90
2022/12/27 01:29:24;;;;;;;11.25;6.25;;;;;;;1.21;100.00;102108.81;6206629;23;20009;-91
2022/12/27 01:31:50;;;;;;;12.55;5.97;;;;;;;1.25;100.00;102101.81;6207946;23;20031;-91
2022/12/27 01:34:16;;;;;;;13.05;7.00;;;;;;;1.29;100.00;102113.19;6206476;23;20004;-91
2022/12/27 01:36:41;;;;;;;13.10;6.22;;;;;;;1.25;100.00;102109.69;6208252;23;20131;-91
2022/12/27 01:39:10;;;;;;;11.35;5.63;;;;;;;1.26;100.00;102124.56;6181238;23;20020;-92
2022/12/27 01:44:50;;;;;;;11.98;6.28;;;;;;;1.24;100.00;102129.78;6208099;23;20024;-91
2022/12/27 01:47:28;;;;;;;10.07;5.72;;;;;;;1.28;100.00;102132.44;6208957;23;20004;-91
2022/12/27 01:50:08;;;;;;;17.77;6.65;;;;;;;1.32;100.00;102135.09;6209613;23;20008;-91
2022/12/27 01:52:51;;;;;;;10.98;6.07;;;;;;;1.31;100.00;102145.59;6207705;23;20012;-91
2022/12/27 01:55:19;;;;;;;15.93;6.45;;;;;;;1.27;100.00;102142.06;6210220;23;20108;-91
2022/12/27 01:57:46;;;;;;;10.98;5.78;;;;;;;1.31;100.00;102149.09;6212569;23;20000;-92
2022/12/27 02:00:12;;;;;;;13.07;6.07;;;;;;;1.29;100.00;102129.81;6212105;23;20011;-91
2022/12/27 02:02:39;;;;;;;11.13;5.93;;;;;;;1.28;100.00;102128.06;6220464;23;20079;-91
2022/12/27 02:05:05;;;;;;;14.18;6.57;;;;;;;1.29;100.00;102129.81;6233193;23;20024;-92
2022/12/27 02:07:56;;;;;;;12.13;5.80;;;;;;;1.31;100.00;102137.72;6231429;23;20020;-91
2022/12/27 02:10:23;;;;;;;10.82;5.50;;;;;;;1.33;100.00;102134.22;6230073;23;20086;-91
2022/12/27 02:12:48;;;;;;;12.93;6.00;;;;;;;1.40;100.00;102150.91;6225009;23;20016;-92
2022/12/27 02:15:13;;;;;;;12.27;5.35;;;;;;;1.38;100.00;102136.88;6225909;23;20016;-92
2022/12/27 02:17:39;;;;;;;10.00;5.50;;;;;;;1.40;100.00;102137.78;6210870;23;20410;-91
2022/12/27 02:20:11;;;;;;;17.30;5.97;;;;;;;1.41;100.00;102150.03;6210325;23;20028;-91
2022/12/27 02:25:47;;;;;;;12.35;5.47;;;;;;;1.48;100.00;102142.22;6208861;23;20035;-92
2022/12/27 02:28:40;;;;;;;12.98;5.55;;;;;;;1.47;100.00;102158.84;6210148;23;20054;-92
2022/12/27 02:31:15;;;;;;;14.27;5.43;;;;;;;1.43;100.00;102149.19;6209818;23;20062;-90
2022/12/27 02:33:47;;;;;;;11.90;5.90;;;;;;;1.39;100.00;102155.28;6208620;23;20000;-92
2022/12/27 02:36:21;;;;;;;13.68;5.80;;;;;;;1.42;100.00;102152.69;6181832;23;20000;-91
2022/12/27 02:38:50;;;;;;;11.93;5.63;;;;;;;1.43;100.00;102154.44;6219049;23;20040;-92
2022/12/27 02:58:38;;;;;;;14.45;6.03;;;;;;;1.52;100.00;102171.13;6210747;23;20023;-92
2022/12/27 03:04:43;;;;;;;11.68;5.82;;;;;;;1.59;100.00;102142.31;6206160;23;20019;-93
2022/12/27 03:07:24;;;;;;;12.90;5.35;;;;;;;1.73;100.00;102147.63;6207696;23;20012;-92
2022/12/27 03:16:40;;;;;;;8.10;4.70;;;;;;;1.85;100.00;102158.22;6206114;23;20020;-92
2022/12/27 03:25:26;;;;;;;14.20;5.75;;;;;;;1.86;100.00;102153.84;6207115;23;20000;-92
2022/12/27 03:27:33;;;;;;;;;;;;;;;1.75;100.00;102143.25;6206395;23;20074;-93
2022/12/27 03:38:01;;;;;;;11.23;5.00;;;;;;;1.58;100.00;102156.28;6206077;23;20066;-91
2022/12/27 03:38:57;;;;;;;15.23;5.72;;;;;;;1.72;100.00;102185.25;6205535;23;20014;-92
2022/12/27 03:44:24;;;;;;;13.43;5.60;;;;;;;1.73;100.00;102179.13;6205757;23;20485;-91
2022/12/27 03:46:55;;;;;;;14.82;5.40;;;;;;;1.81;100.00;102187.06;6207487;23;20004;-92
2022/12/27 03:49:23;;;;;;;15.80;6.10;;;;;;;1.80;100.00;102186.19;6205883;23;20039;-92
2022/12/27 03:52:13;;;;;;;14.88;5.57;;;;;;;1.73;100.00;102174.75;6207174;23;20430;-91
2022/12/27 03:54:40;;;;;;;13.05;5.07;;;;;;;1.87;100.00;102187.09;6180037;23;20016;-90
2022/12/27 03:57:11;;;;;;;9.63;4.80;;;;;;;1.83;100.00;102196.69;6207716;23;20003;-91
2022/12/27 03:59:37;;;;;;;10.45;5.00;;;;;;;1.73;100.00;102187.00;6206288;23;20036;-91
2022/12/27 04:02:04;;;;;;;12.15;5.15;;;;;;;1.68;100.00;102194.84;6207341;23;20004;-91
2022/12/27 04:04:29;;;;;;;12.15;4.78;;;;;;;1.69;100.00;102198.34;6178954;23;20008;-91
2022/12/27 04:06:55;;;;;;;9.95;4.88;;;;;;;1.65;100.00;102204.44;6179686;23;20051;-91
2022/12/27 04:36:42;;;;;;;13.70;5.20;;;;;;;1.46;100.00;102185.94;6212433;23;20020;-91
2022/12/27 04:39:08;;;;;;;11.40;4.93;;;;;;;1.47;100.00;102179.81;6211844;23;20004;-91
2022/12/27 04:55:23;;;;;;;12.65;5.43;;;;;;;1.47;100.00;102203.44;6209337;23;20485;-91
2022/12/27 04:57:50;;;;;;;21.50;5.75;;;;;;;1.45;100.00;102197.28;6182933;23;20000;-91
2022/12/27 05:03:05;;;;;;;12.82;5.05;;;;;;;1.51;100.00;102206.09;6209409;23;20050;-90
2022/12/27 05:05:30;;;;;;;13.55;5.85;;;;;;;1.49;100.00;102199.06;6207893;23;20019;-91
2022/12/27 05:16:18;;;;;;;;;;;;;;;1.45;100.00;102220.91;6208236;23;20016;-91
2022/12/27 05:18:43;;;;;;;18.83;5.85;;;;;;;1.47;100.00;102213.94;6208283;23;19904;-91
2022/12/27 05:21:09;;;;;;;12.38;5.70;;;;;;;1.52;100.00;102215.72;6211567;23;20330;-92
2022/12/27 05:26:23;;;;;;;14.48;5.57;;;;;;;1.51;100.00;102229.72;6211390;23;20023;-91
2022/12/27 05:28:50;;;;;;;15.18;5.97;;;;;;;1.45;100.00;102222.66;6209799;23;20005;-91
2022/12/27 05:31:16;;;;;;;11.75;5.25;;;;;;;1.35;100.00;102218.19;6181381;23;20000;-90
2022/12/27 05:33:41;;;;;;;14.73;5.40;;;;;;;1.42;100.00;102240.97;6207705;23;20019;-90
2022/12/27 05:36:07;;;;;;;14.45;5.38;;;;;;;1.43;100.00;102235.75;6207915;23;20091;-91
2022/12/27 05:38:32;;;;;;;12.52;5.57;;;;;;;1.38;100.00;102232.22;6209758;23;20004;-90
2022/12/27 05:40:59;;;;;;;12.85;5.70;;;;;;;1.42;100.00;102252.38;6209077;23;20011;-90
2022/12/27 05:43:25;;;;;;;16.63;5.50;;;;;;;1.46;100.00;102248.00;6207416;23;20004;-90
2022/12/27 05:45:50;;;;;;;14.00;5.70;;;;;;;1.44;100.00;102248.00;6207524;23;20051;-91
2022/12/27 05:48:16;;;;;;;14.27;5.50;;;;;;;1.42;100.00;102249.75;6180218;23;20059;-90
2022/12/27 05:50:41;;;;;;;12.13;5.55;;;;;;;1.42;100.00;102261.97;6206815;23;20019;-90
2022/12/27 05:53:06;;;;;;;14.93;5.93;;;;;;;1.43;100.00;102266.38;6206845;23;20004;-90
2022/12/27 05:55:31;;;;;;;15.35;5.75;;;;;;;1.40;100.00;102263.72;6209572;23;20374;-90
2022/12/27 05:57:57;;;;;;;16.02;5.75;;;;;;;1.36;100.00;102268.03;6209248;23;20000;-89
2022/12/27 06:00:22;;;;;;;12.10;5.40;;;;;;;1.34;100.00;102256.66;6208480;23;20527;-90
2022/12/27 06:02:47;;;;;;;13.45;5.63;;;;;;;1.28;100.00;102247.84;6211391;23;20008;-91
2022/12/27 06:05:12;;;;;;;15.82;6.20;;;;;;;1.36;100.00;102268.03;6210386;23;20052;-91
2022/12/27 06:07:38;;;;;;;11.75;5.30;;;;;;;1.22;100.00;102254.81;6214053;23;20077;-92
2022/12/27 06:10:06;;;;;;;15.02;6.32;;;;;;;1.28;100.00;102274.97;6201792;23;20019;-90
2022/12/27 06:12:31;;;;;;;13.95;5.60;;;;;;;1.25;100.00;102261.81;6231972;23;19985;-91
2022/12/27 06:14:56;;;;;;;15.70;5.53;;;;;;;1.24;100.00;102262.66;6231403;23;19989;-90
2022/12/27 06:17:22;;;;;;;12.70;5.57;;;;;;;1.25;100.00;102274.91;6232512;23;20028;-89
2022/12/27 06:19:47;;;;;;;13.27;6.32;;;;;;;1.16;100.00;102264.34;6210886;23;20008;-89
2022/12/27 06:22:12;;;;;;;10.07;5.70;;;;;;;1.21;100.00;102279.28;6212282;23;20032;-91
2022/12/27 06:24:38;;;;;;;12.32;6.00;;;;;;;1.15;100.00;102278.31;6208581;23;20020;-90
2022/12/27 06:27:03;;;;;;;20.80;5.90;;;;;;;1.06;100.00;102262.50;6207707;23;20012;-91
2022/12/27 06:29:28;;;;;;;16.38;6.22;;;;;;;1.15;100.00;102278.31;6206002;23;20831;-89
2022/12/27 06:31:53;;;;;;;14.07;5.72;;;;;;;1.12;100.00;102273.91;6209763;23;20012;-90
2022/12/27 06:34:19;;;;;;;16.02;6.68;;;;;;;1.11;100.00;102274.78;6229194;23;20035;-90
2022/12/27 06:36:49;;;;;;;18.92;6.88;;;;;;;1.09;100.00;102270.41;6229179;23;20000;-90
2022/12/27 06:39:15;;;;;;;17.15;6.05;;;;;;;1.13;100.00;102280.03;6226100;23;20019;-89
2022/12/27 06:41:40;;;;;;;14.02;6.15;;;;;;;1.12;100.00;102275.66;6234321;23;20012;-90
2022/12/27 06:44:05;;;;;;;14.82;5.57;;;;;;;1.07;100.00;102269.47;6235051;23;20023;-90
2022/12/27 06:46:31;;;;;;;14.77;5.88;;;;;;;1.05;100.00;102273.84;6230624;23;20012;-90
2022/12/27 06:48:56;;;;;;;18.35;7.13;;;;;;;1.02;100.00;102263.31;6209738;23;20423;-89
2022/12/27 06:51:21;;;;;;;13.32;5.85;;;;;;;0.99;100.00;102262.41;6208658;23;20011;-88
2022/12/27 06:53:47;;;;;;;13.45;6.85;;;;;;;0.95;100.00;102265.84;6209986;23;20124;-89
2022/12/27 06:56:15;;;;;;;18.10;6.30;;;;;;;1.00;100.00;102276.38;6210488;23;20500;-91
2022/12/27 06:58:41;;;;;;;18.70;6.43;;;;;;;1.01;100.00;102275.56;6209551;23;20000;-91
2022/12/27 07:01:15;;;;;;;15.07;6.10;;;;;;;1.07;100.00;102279.97;6207358;23;20072;-92
2022/12/27 07:03:41;;;;;;;16.67;6.70;;;;;;;1.09;100.00;102294.00;6210377;23;20001;-90
2022/12/27 07:06:10;;;;;;;16.58;6.93;;;;;;;1.08;100.00;102287.84;6207865;23;20048;-90
2022/12/27 07:08:36;;;;;;;16.25;6.25;;;;;;;1.06;100.00;102296.56;6206260;23;20009;-91
2022/12/27 07:11:07;;;;;;;14.00;6.43;;;;;;;1.03;100.00;102288.66;6208666;23;20039;-93
2022/12/27 07:13:35;;;;;;;15.98;7.47;;;;;;;1.05;100.00;102310.56;6207137;23;20003;-89
2022/12/27 07:16:04;;;;;;;15.40;6.63;;;;;;;1.03;100.00;102299.16;6207231;23;20012;-87
2022/12/27 07:18:29;;;;;;;17.35;7.60;;;;;;;1.05;100.00;102302.69;6205343;23;20004;-90
2022/12/27 07:20:55;;;;;;;15.00;6.80;;;;;;;0.97;100.00;102311.34;6205734;23;20008;-90
2022/12/27 07:23:20;;;;;;;17.08;6.63;;;;;;;1.02;100.00;102313.13;6204674;23;20039;-90
2022/12/27 07:25:45;;;;;;;15.43;6.88;;;;;;;1.03;100.00;102312.25;6205800;23;20000;-88
2022/12/27 07:28:10;;;;;;;18.67;7.18;;;;;;;1.02;100.00;102303.53;6205931;23;20004;-88
2022/12/27 07:30:39;;;;;;;15.57;6.80;;;;;;;0.98;100.00;102307.84;6207922;23;20015;-89
2022/12/27 07:33:04;;;;;;;13.65;6.97;;;;;;;1.00;100.00;102307.84;6179973;23;20015;-88
2022/12/27 07:35:29;;;;;;;15.43;6.78;;;;;;;0.93;100.00;102304.28;6207364;23;20008;-90
2022/12/27 07:37:55;;;;;;;17.45;7.65;;;;;;;1.03;100.00;102315.75;6207582;23;20004;-92
2022/12/27 07:40:20;;;;;;;14.80;7.10;;;;;;;1.05;100.00;102316.69;6179667;23;20008;-91
2022/12/27 07:42:45;;;;;;;13.32;7.93;;;;;;;1.09;100.00;102318.47;6207093;23;20004;-89
2022/12/27 07:45:11;;;;;;;19.25;7.80;;;;;;;1.09;100.00;102320.22;6205923;23;20028;-89
2022/12/27 07:47:36;;;;;;;17.73;8.07;;;;;;;1.11;100.00;102321.09;6208923;23;20487;-92
2022/12/27 07:50:02;;;;;;;18.70;7.63;;;;;;;1.10;100.00;102311.47;6216890;23;20057;-92
2022/12/27 07:52:27;;;;;;;19.88;8.73;;;;;;;1.18;100.00;102330.81;6205497;23;20012;-89
2022/12/27 07:54:52;;;;;;;19.85;8.40;;;;;;;1.19;100.00;102328.19;6205033;23;20012;-89
2022/12/27 07:57:17;;;;;;;16.60;8.18;;;;;;;1.16;100.00;102338.63;6202548;23;20012;-91
2022/12/27 07:59:43;;;;;;;18.77;8.35;;;;;;;1.17;100.00;102329.94;6204051;23;20008;-91
2022/12/27 08:02:08;;;;;;;14.65;7.10;;;;;;;1.18;100.00;102330.81;6206341;23;20008;-92
2022/12/27 08:04:37;;;;;;;14.60;7.30;;;;;;;1.21;100.00;102330.81;6211130;23;20095;-90
2022/12/27 08:07:17;;;;;;;15.10;7.63;;;;;;;1.18;100.00;102330.81;6205773;23;20015;-89
2022/12/27 08:09:44;;;;;;;14.82;7.22;;;;;;;1.29;100.00;102337.03;6204968;23;20096;-91
2022/12/27 08:12:12;;;;;;;15.80;7.07;;;;;;;1.34;100.00;102338.00;6203539;23;20020;-91
2022/12/27 08:14:37;;;;;;;17.20;7.93;;;;;;;1.42;100.00;102340.69;6177834;23;20095;-92
2022/12/27 08:17:12;;;;;;;12.77;7.00;;;;;;;1.44;100.00;102334.59;6205351;23;20403;-90
2022/12/27 08:19:37;;;;;;;15.80;8.45;;;;;;;1.45;100.00;102338.97;6205189;23;20415;-91
2022/12/27 08:22:04;;;;;;;14.88;7.60;;;;;;;1.40;100.00;102327.56;6178352;23;20055;-89
2022/12/27 08:24:29;;;;;;;11.85;7.30;;;;;;;1.48;100.00;102338.13;6204901;23;20418;-91
2022/12/27 08:26:55;;;;;;;11.95;6.65;;;;;;;1.49;100.00;102339.88;6205492;23;20004;-90
2022/12/27 08:29:20;;;;;;;13.73;7.43;;;;;;;1.49;100.00;102348.63;6205926;23;20825;-91
2022/12/27 08:31:45;;;;;;;18.10;7.38;;;;;;;1.45;100.00;102351.22;6210432;23;20646;-91
2022/12/27 08:34:11;;;;;;;15.82;6.90;;;;;;;1.49;100.00;102355.63;6207811;23;20005;-90
2022/12/27 08:36:36;;;;;;;18.40;7.90;;;;;;;1.51;100.00;102355.66;6206367;23;20085;-92
2022/12/27 08:39:02;;;;;;;17.63;7.20;;;;;;;1.51;100.00;102359.16;6207865;23;20353;-91
2022/12/27 08:41:27;;;;;;;15.10;7.30;;;;;;;1.50;100.00;102349.50;6206344;23;20009;-90
2022/12/27 08:43:52;;;;;;;15.38;7.85;;;;;;;1.65;100.00;102356.69;6207108;23;20008;-91
2022/12/27 08:46:18;;;;;;;15.60;7.45;;;;;;;1.66;100.00;102354.06;6179629;23;20008;-91
2022/12/27 08:48:46;;;;;;;11.80;6.85;;;;;;;1.69;100.00;102354.09;6210423;23;20004;-91
2022/12/27 08:51:12;;;;;;;9.60;6.97;;;;;;;1.77;100.00;102358.56;6221400;23;20047;-92
2022/12/27 08:53:37;;;;;;;14.13;7.20;;;;;;;1.77;100.00;102342.78;6229114;23;20508;-90
2022/12/27 08:56:03;;;;;;;15.43;7.30;;;;;;;1.80;100.00;102340.19;6233982;23;20007;-91
2022/12/27 08:58:28;;;;;;;11.20;6.90;;;;;;;1.92;100.00;102343.81;6231776;23;19996;-91
2022/12/27 09:00:53;;;;;;;12.63;7.00;;;;;;;1.88;100.00;102326.28;6227521;23;19993;-91
2022/12/27 09:03:20;;;;;;;16.05;7.13;;;;;;;2.02;100.00;102351.78;6227304;23;20484;-89
2022/12/27 09:05:46;;;;;;;12.77;7.03;;;;;;;2.08;100.00;102334.31;6222268;23;20012;-90
2022/12/27 09:08:11;;;;;;;16.02;6.88;;;;;;;2.12;100.00;102343.09;6205965;23;20009;-91
2022/12/27 09:10:37;;;;;;;12.73;6.95;;;;;;;2.18;100.00;102349.28;6207211;23;20513;-91
2022/12/27 09:13:03;;;;;;;13.02;7.10;;;;;;;2.29;100.00;102337.97;6208319;23;20000;-90
2022/12/27 09:15:28;;;;;;;12.43;6.80;;;;;;;2.45;100.00;102342.47;6207298;23;20012;-90
2022/12/27 09:17:53;;;;;;;14.95;6.78;;;;;;;2.58;100.00;102349.53;6207802;23;20004;-90
2022/12/27 09:20:18;;;;;;;12.85;6.75;;;;;;;2.65;100.00;102348.72;6205108;23;20005;-92
2022/12/27 09:22:44;;;;;;;12.60;6.10;;;;;;;2.74;100.00;102348.78;6206928;23;20028;-91
2022/12/27 09:25:09;;;;;;;14.43;6.50;;;;;;;2.73;100.00;102359.28;6180338;23;20485;-90
2022/12/27 09:27:36;;;;;;;16.10;6.55;;;;;;;2.62;100.00;102351.31;6205895;23;20083;-91
2022/12/27 09:30:02;;;;;;;14.35;6.50;;;;;;;2.63;100.00;102357.47;6206545;23;20007;-90
2022/12/27 09:32:28;;;;;;;12.35;6.18;;;;;;;2.56;100.00;102348.69;6219165;23;20495;-90
2022/12/27 09:34:53;;;;;;;14.48;6.32;;;;;;;2.58;100.00;102359.19;6230774;23;19996;-92
2022/12/27 09:37:19;;;;;;;15.68;7.80;;;;;;;2.50;100.00;102354.75;6233884;23;19989;-92
2022/12/27 09:39:44;;;;;;;15.07;7.53;;;;;;;2.49;100.00;102344.25;6233917;23;20013;-92
2022/12/27 09:42:28;;;;;;;13.20;6.53;;;;;;;2.60;100.00;102360.09;6218696;23;19996;-91
2022/12/27 09:45:02;;;;;;;;;;;;;;;2.62;100.00;102356.59;6209238;23;20004;-92
2022/12/27 09:47:37;;;;;;;14.80;6.82;;;;;;;2.66;100.00;102361.00;6207065;23;19919;-89
2022/12/27 09:50:09;;;;;;;14.15;6.50;;;;;;;2.70;100.00;102369.78;6208762;23;20005;-90
2022/12/27 09:53:01;;;;;;;16.40;7.45;;;;;;;2.73;100.00;102372.44;6207090;23;20484;-90
2022/12/27 09:55:38;;;;;;;20.83;7.55;;;;;;;2.78;100.00;102369.81;6210475;23;20048;-91
2022/12/27 09:58:22;;;;;;;19.05;7.40;;;;;;;2.81;100.00;102373.34;6207455;23;20001;-91
2022/12/27 10:00:53;;;;;;;16.73;7.18;;;;;;;2.84;100.00;102368.09;6206573;23;20077;-90
2022/12/27 10:03:24;;;;;;;13.10;7.32;;;;;;;2.89;100.00;102362.88;6205776;23;20001;-91
2022/12/27 10:05:58;;;;;;;13.20;7.03;;;;;;;2.91;100.00;102369.03;6208595;23;20016;-91
2022/12/27 10:08:42;;;;;;;17.52;7.90;;;;;;;2.96;100.00;102367.28;6208759;23;20005;-91
2022/12/27 10:11:37;;;;;;;14.02;7.78;;;;;;;2.99;100.00;102372.56;6207807;23;20005;-92
2022/12/27 10:14:37;;;;;;;13.55;7.30;;;;;;;3.03;100.00;102376.97;6206902;23;20004;-91
2022/12/27 10:17:17;;;;;;;13.32;7.65;;;;;;;3.10;100.00;102370.00;6207108;23;19997;-92
2022/12/27 10:19:45;;;;;;;12.35;8.00;;;;;;;3.14;100.00;102379.66;6206095;23;20000;-91
2022/12/27 10:22:32;;;;;;;14.98;7.95;;;;;;;3.17;100.00;102369.13;6205269;23;20423;-90
2022/12/27 10:25:01;;;;;;;12.45;7.72;;;;;;;3.23;100.00;102372.69;6206114;23;20493;-90
2022/12/27 10:27:28;;;;;;;13.20;8.02;;;;;;;3.28;100.00;102362.16;6205766;23;20009;-91
2022/12/27 10:29:56;;;;;;;13.40;7.32;;;;;;;3.28;100.00;102359.53;6207888;23;20004;-91
2022/12/27 10:32:22;;;;;;;10.32;7.18;;;;;;;3.30;100.00;102359.53;6207481;23;20058;-91
2022/12/27 10:34:55;;;;;;;12.00;7.32;;;;;;;3.35;100.00;102365.72;6208778;23;20515;-90
2022/12/27 10:37:21;;;;;;;13.07;8.57;;;;;;;3.36;100.00;102368.34;6207077;23;20015;-90
2022/12/27 10:39:46;;;;;;;13.32;7.22;;;;;;;3.33;100.00;102359.56;6208136;23;20036;-90
2022/12/27 10:42:37;;;;;;;11.43;7.18;;;;;;;3.43;100.00;102367.50;6205554;23;20000;-90
2022/12/27 10:45:35;;;;;;;19.15;9.30;;;;;;;3.48;100.00;102357.84;6205407;23;20093;-90
2022/12/27 10:48:24;;;;;;;13.95;6.82;;;;;;;3.51;100.00;102362.22;6206126;23;20012;-90
2022/12/27 10:50:58;;;;;;;12.20;7.00;;;;;;;3.60;100.00;102356.13;6205185;23;20004;-91
2022/12/27 10:53:28;;;;;;;;;;;;;;;3.66;100.00;102359.63;6205797;23;20056;-90
2022/12/27 10:56:20;;;;;;;12.82;6.68;;;;;;;3.83;100.00;102361.41;6207087;23;19994;-92
2022/12/27 10:58:51;;;;;;;11.77;6.57;;;;;;;4.07;100.00;102363.22;6178939;23;20497;-89
2022/12/27 11:01:25;;;;;;;12.15;5.93;;;;;;;4.22;100.00;102355.28;6204561;23;20009;-89
2022/12/27 11:04:06;;;;;;;12.68;7.28;;;;;;;4.41;100.00;102364.06;6205357;23;20066;-89
2022/12/27 11:06:32;;;;;;;11.50;6.38;;;;;;;4.57;100.00;102362.28;6178797;23;20040;-90
2022/12/27 11:08:57;;;;;;;12.35;5.75;;;;;;;4.65;100.00;102357.88;6212001;23;20106;-92
2022/12/27 11:11:25;;;;;;;13.27;6.55;;;;;;;4.77;100.00;102349.94;6214158;23;20330;-88
2022/12/27 11:13:51;;;;;;;10.20;5.25;;;;;;;4.78;100.00;102330.59;6213954;23;20429;-89
2022/12/27 11:16:31;;;;;;;10.60;4.65;;;;;;;4.90;100.00;102343.75;6225706;23;19988;-90
2022/12/27 11:18:59;;;;;;;9.85;5.10;;;;;;;4.86;100.00;102339.34;6200097;23;20009;-89
2022/12/27 11:21:26;;;;;;;10.48;5.80;;;;;;;4.95;100.00;102344.59;6222157;23;20012;-90
2022/12/27 11:23:56;;;;;;;13.00;7.82;;;;;;;5.02;100.00;102337.53;6212182;23;20000;-90
2022/12/27 11:26:26;;;;;;;9.63;5.30;;;;;;;5.04;100.00;102338.41;6208344;23;20040;-91
2022/12/27 11:29:00;;;;;;;11.18;5.40;;;;;;;5.17;100.00;102344.50;6209523;23;20007;-90
2022/12/27 11:31:46;;;;;;;8.80;4.78;;;;;;;5.24;100.00;102333.91;6205686;23;20059;-90
2022/12/27 11:34:20;;;;;;;7.57;4.80;;;;;;;5.21;100.00;102338.31;6205794;23;20007;-91
2022/12/27 11:36:49;;;;;;;8.57;4.60;;;;;;;5.23;100.00;102340.09;6207807;23;20000;-91
2022/12/27 11:39:37;;;;;;;8.13;4.90;;;;;;;5.32;100.00;102343.56;6180253;23;20406;-90
2022/12/27 11:42:07;;;;;;;8.75;4.68;;;;;;;5.31;100.00;102336.50;6179913;23;20376;-90
2022/12/27 11:44:39;;;;;;;11.23;4.80;;;;;;;5.32;100.00;102333.88;6204792;23;20011;-91
2022/12/27 11:47:14;;;;;;;9.15;4.78;;;;;;;5.28;100.00;102318.94;6207263;23;20001;-91
2022/12/27 11:49:50;;;;;;;9.95;4.63;;;;;;;5.25;100.00;102332.16;6206847;23;20007;-90
2022/12/27 11:52:37;;;;;;;6.40;3.83;;;;;;;5.18;100.00;102328.69;6206872;23;20083;-90
2022/12/27 11:55:35;;;;;;;8.15;4.32;;;;;;;5.11;100.00;102328.72;6208482;23;20031;-90
2022/12/27 11:58:12;;;;;;;8.05;3.90;;;;;;;5.10;100.00;102326.94;6179685;23;20013;-90
2022/12/27 12:00:56;;;;;;;6.60;3.95;;;;;;;5.07;100.00;102326.97;6205147;23;20032;-90
2022/12/27 12:03:42;;;;;;;9.50;4.13;;;;;;;5.09;100.00;102320.78;6207106;23;20012;-90
2022/12/27 12:06:13;;;;;;;9.20;3.92;;;;;;;5.10;100.00;102311.09;6209418;23;20016;-90
2022/12/27 12:09:11;;;;;;;6.80;4.05;;;;;;;5.14;100.00;102308.47;6182296;23;20013;-92
2022/12/27 12:12:02;;;;;;;12.20;4.60;;;;;;;5.16;100.00;102317.22;6183185;23;20001;-92
2022/12/27 12:14:55;;;;;;;8.85;4.10;;;;;;;5.17;100.00;102311.06;6209013;23;20004;-88
2022/12/27 12:17:37;;;;;;;9.35;4.63;;;;;;;5.11;100.00;102299.69;6217260;23;20072;-91
2022/12/27 12:20:21;;;;;;;6.03;3.88;;;;;;;5.23;100.00;102305.78;6211240;23;20032;-89
2022/12/27 12:23:11;;;;;;;7.03;3.92;;;;;;;5.29;100.00;102299.56;6210963;23;20004;-92
2022/12/27 12:25:57;;;;;;;7.63;4.18;;;;;;;5.26;100.00;102294.28;6210163;23;20028;-92
2022/12/27 12:28:53;;;;;;;7.85;4.28;;;;;;;5.36;100.00;102300.41;6209921;23;20004;-88
2022/12/27 12:31:57;;;;;;;8.80;4.07;;;;;;;5.38;100.00;102288.94;6208999;23;20017;-89
2022/12/27 12:34:47;;;;;;;6.90;4.13;;;;;;;5.44;100.00;102288.91;6209722;23;19996;-90
2022/12/27 12:37:39;;;;;;;7.00;4.38;;;;;;;5.50;100.00;102296.78;6210321;23;20004;-89
2022/12/27 12:40:31;;;;;;;9.07;4.25;;;;;;;5.56;100.00;102297.63;6209445;23;20005;-88
2022/12/27 12:43:34;;;;;;;8.45;4.40;;;;;;;5.53;100.00;102290.63;6208613;23;20032;-88
2022/12/27 12:46:21;;;;;;;12.38;4.78;;;;;;;5.49;100.00;102292.41;6209975;23;20000;-88
2022/12/27 12:49:11;;;;;;;9.10;4.25;;;;;;;5.45;100.00;102281.88;6208926;23;20072;-88
2022/12/27 12:51:59;;;;;;;7.82;4.20;;;;;;;5.50;100.00;102273.03;6207509;23;20005;-89
2022/12/27 12:55:02;;;;;;;9.70;4.35;;;;;;;5.44;100.00;102272.22;6207919;23;20008;-89
2022/12/27 12:58:04;;;;;;;8.88;4.18;;;;;;;5.39;100.00;102266.97;6207202;23;20446;-88
2022/12/27 13:00:43;;;;;;;7.38;3.72;;;;;;;5.33;100.00;102259.06;6179530;23;20012;-88
2022/12/27 13:03:20;;;;;;;8.70;4.35;;;;;;;5.30;100.00;102256.44;6207567;23;20559;-88
2022/12/27 13:06:14;;;;;;;8.50;3.88;;;;;;;5.37;100.00;102252.00;6207039;23;20051;-88
2022/12/27 13:09:02;;;;;;;;;;;;;;;5.47;100.00;102243.13;6208977;23;20084;-89
2022/12/27 13:11:36;;;;;;;8.07;4.18;;;;;;;5.38;100.00;102236.13;6205662;23;20104;-89
2022/12/27 13:14:18;;;;;;;8.45;4.45;;;;;;;5.29;100.00;102225.66;6207244;23;20004;-89
2022/12/27 13:16:57;;;;;;;10.63;4.40;;;;;;;5.21;100.00;102222.19;6208267;23;20100;-88
2022/12/27 13:19:59;;;;;;;10.00;5.07;;;;;;;5.14;100.00;102216.09;6220560;23;20015;-89
2022/12/27 13:22:43;;;;;;;7.72;4.10;;;;;;;5.13;100.00;102224.00;6213293;23;20015;-88